East End, Virginia
Current Conditions -  °F | °C
As of 1:54 PM on Saturday 25 Oct 2014 (Local Time) from KRIC Reporting Station
Clear Clear  
Wind Chill: 72°   Ceiling: Unl
Heat Index: 72°   Visibility: 10mi
Dew Point: 33°   Wind: 9mph
Humidity: 24%   Direction: 250°WSW
Pressure: 29.89"   Gusts: NA
Location:  37.556°N, 77.3779°W
Report Text: KRIC 251754Z 25008KT 10SM CLR 22/01 A2989 RMK AO2 SLP127 T02220006 10222 20050 58036
Loading
Personal Weather Stations






























Interactive Weather Map
Tropical Storm Tracking
New forecast layout! Learn more

10-Day Weather Forecast

Advertisements
Track Severe Weather on mobile